createdAt,value
2019-05-26T00:00:34.431Z,97144.09
2019-05-26T00:03:13.513Z,97150.03
2019-05-26T00:05:58.792Z,97150.08
2019-05-26T00:08:46.388Z,97159.48
2019-05-26T00:11:25.597Z,97156.88
2019-05-26T00:14:02.814Z,97159.78
2019-05-26T00:16:41.430Z,97156.52
2019-05-26T00:19:25.061Z,97151.25
2019-05-26T00:22:10.248Z,97149.69
2019-05-26T00:24:49.651Z,97159.48
2019-05-26T00:27:35.860Z,97156.88
2019-05-26T00:30:04.961Z,97154.27
2019-05-26T00:32:43.271Z,97162.82
2019-05-26T00:35:17.851Z,97160.22
2019-05-26T00:38:00.670Z,97158.33
2019-05-26T00:40:46.891Z,97159.33
2019-05-26T00:43:46.628Z,97155.58
2019-05-26T00:46:22.291Z,97156.44
2019-05-26T00:48:55.381Z,97157.05
2019-05-26T00:51:35.005Z,97160.08
2019-05-26T00:54:09.950Z,97159.66
2019-05-26T00:56:50.054Z,97166.00
2019-05-26T00:59:29.433Z,97166.00
2019-05-26T01:02:12.644Z,97170.25
2019-05-26T01:05:24.913Z,97170.43
2019-05-26T01:08:07.838Z,97171.83
2019-05-26T01:10:43.584Z,97184.77
2019-05-26T01:13:45.881Z,97179.55
2019-05-26T01:16:30.701Z,97177.89
2019-05-26T01:19:12.318Z,97182.37
2019-05-26T01:21:59.111Z,97174.55
2019-05-26T01:24:50.468Z,97181.06
2019-05-26T01:27:26.976Z,97184.97
2019-05-26T01:30:14.839Z,97198.47
2019-05-26T01:33:17.365Z,97194.09
2019-05-26T01:35:59.074Z,97194.80
2019-05-26T01:38:37.498Z,97190.89
2019-05-26T01:41:16.708Z,97196.92
2019-05-26T01:44:12.504Z,97196.45
2019-05-26T01:47:08.142Z,97200.00
2019-05-26T01:49:45.399Z,97200.70
2019-05-26T01:52:21.299Z,97202.27
2019-05-26T01:55:00.965Z,97202.41
2019-05-26T01:57:51.429Z,97201.66
2019-05-26T02:00:25.796Z,97199.68
2019-05-26T02:02:59.595Z,97202.13
2019-05-26T02:05:52.397Z,97201.92
2019-05-26T02:09:16.817Z,97199.25
2019-05-26T02:12:25.149Z,97204.66
2019-05-26T02:15:03.530Z,97205.27
2019-05-26T02:17:58.144Z,97214.99
2019-05-26T02:20:34.804Z,97219.54
2019-05-26T02:23:15.762Z,97215.48
2019-05-26T02:25:49.513Z,97219.33
2019-05-26T02:28:23.613Z,97217.95
2019-05-26T02:31:00.055Z,97221.93
2019-05-26T02:33:38.632Z,97222.87
2019-05-26T02:36:20.151Z,97226.59
2019-05-26T02:39:04.896Z,97225.29
2019-05-26T02:41:43.162Z,97224.17
2019-05-26T02:44:31.933Z,97225.41
2019-05-26T02:47:14.990Z,97234.44
2019-05-26T02:49:57.489Z,97230.65
2019-05-26T02:52:45.098Z,97240.26
2019-05-26T02:55:29.255Z,97232.52
2019-05-26T02:58:06.542Z,97233.83
2019-05-26T03:00:46.410Z,97228.36
2019-05-26T03:03:23.379Z,97235.27
2019-05-26T03:06:00.120Z,97233.97
2019-05-26T03:08:45.818Z,97237.87
2019-05-26T03:11:22.492Z,97232.05
2019-05-26T03:16:58.766Z,97239.45
2019-05-26T03:19:34.493Z,97246.86
2019-05-26T03:22:12.204Z,97244.00
2019-05-26T03:25:07.977Z,97245.98
2019-05-26T03:27:41.539Z,97253.61
2019-05-26T03:30:18.035Z,97250.56
2019-05-26T03:32:54.832Z,97258.18
2019-05-26T03:35:27.939Z,97259.82
2019-05-26T03:38:09.363Z,97266.08
2019-05-26T03:40:51.484Z,97266.97
2019-05-26T03:43:53.696Z,97270.88
2019-05-26T03:46:28.188Z,97271.06
2019-05-26T03:49:02.532Z,97277.67
2019-05-26T03:51:39.847Z,97285.52
2019-05-26T03:54:21.755Z,97288.13
2019-05-26T03:56:56.570Z,97288.33
2019-05-26T03:59:48.922Z,97299.91
2019-05-26T04:02:37.072Z,97300.66
2019-05-26T04:05:16.730Z,97308.32
2019-05-26T04:07:51.472Z,97313.17
2019-05-26T04:10:26.169Z,97319.90
2019-05-26T04:13:05.849Z,97321.73
2019-05-26T04:15:52.358Z,97330.33
2019-05-26T04:18:29.831Z,97330.70
2019-05-26T04:21:02.486Z,97336.23
2019-05-26T04:23:37.869Z,97340.25
2019-05-26T04:26:27.348Z,97342.19
2019-05-26T04:29:10.202Z,97343.91
2019-05-26T04:32:05.469Z,97340.72
2019-05-26T04:34:38.375Z,97350.17
2019-05-26T04:37:23.754Z,97349.72
2019-05-26T04:40:26.725Z,97352.65
2019-05-26T04:43:00.060Z,97354.67
2019-05-26T04:45:30.547Z,97343.47
2019-05-26T04:48:07.408Z,97342.98
2019-05-26T04:50:45.869Z,97342.50
2019-05-26T04:53:20.726Z,97340.52
2019-05-26T04:55:58.041Z,97346.74
2019-05-26T04:58:53.407Z,97353.74
2019-05-26T05:01:33.919Z,97354.37
2019-05-26T05:04:39.354Z,97356.27
2019-05-26T05:07:30.283Z,97357.70
2019-05-26T05:10:08.386Z,97362.06
2019-05-26T05:12:48.942Z,97365.40
2019-05-26T05:15:30.486Z,97369.78
2019-05-26T05:18:05.882Z,97374.58
2019-05-26T05:20:47.935Z,97373.23
2019-05-26T05:23:24.948Z,97377.39
2019-05-26T05:26:05.482Z,97384.02
2019-05-26T05:29:01.228Z,97378.48
2019-05-26T05:31:38.919Z,97384.59
2019-05-26T05:34:19.433Z,97384.00
2019-05-26T05:37:08.592Z,97386.02
2019-05-26T05:39:47.037Z,97389.98
2019-05-26T05:42:36.574Z,97393.33
2019-05-26T05:45:29.536Z,97395.81
2019-05-26T05:48:13.219Z,97400.58
2019-05-26T05:50:50.484Z,97404.84
2019-05-26T05:53:32.267Z,97403.23
2019-05-26T05:56:15.791Z,97404.89
2019-05-26T05:58:54.355Z,97400.13
2019-05-26T06:01:26.046Z,97396.70
2019-05-26T06:04:20.295Z,97405.71
2019-05-26T06:07:17.733Z,97399.36
2019-05-26T06:09:46.725Z,97404.44
2019-05-26T06:12:20.185Z,97407.21
2019-05-26T06:14:52.594Z,97406.55
2019-05-26T06:17:31.674Z,97411.63
2019-05-26T06:20:04.231Z,97412.59
2019-05-26T06:22:35.771Z,97417.18
2019-05-26T06:25:13.104Z,97415.50
2019-05-26T06:27:55.233Z,97416.02
2019-05-26T06:30:41.509Z,97416.80
2019-05-26T06:33:16.391Z,97421.88
2019-05-26T06:35:51.994Z,97420.17
2019-05-26T06:38:25.510Z,97423.06
2019-05-26T06:41:02.609Z,97426.20
2019-05-26T06:43:44.445Z,97427.63
2019-05-26T06:46:26.442Z,97425.60
2019-05-26T06:49:03.478Z,97436.33
2019-05-26T06:51:38.539Z,97438.78
2019-05-26T06:54:17.410Z,97437.31
2019-05-26T06:56:59.550Z,97438.69
2019-05-26T06:59:37.667Z,97441.84
2019-05-26T07:02:15.459Z,97435.70
2019-05-26T07:04:52.562Z,97445.16
2019-05-26T07:07:28.195Z,97438.77
2019-05-26T07:10:07.305Z,97441.75
2019-05-26T07:12:57.967Z,97449.59
2019-05-26T07:15:33.973Z,97456.64
2019-05-26T07:18:09.815Z,97457.22
2019-05-26T07:20:53.974Z,97458.59
2019-05-26T07:23:31.319Z,97463.45
2019-05-26T07:26:11.243Z,97471.17
2019-05-26T07:28:53.105Z,97469.56
2019-05-26T07:31:28.644Z,97476.44
2019-05-26T07:34:14.187Z,97478.33
2019-05-26T07:36:53.225Z,97479.43
2019-05-26T07:39:28.668Z,97482.98
2019-05-26T07:42:09.807Z,97477.48
2019-05-26T07:44:43.582Z,97485.13
2019-05-26T07:47:17.712Z,97480.52
2019-05-26T07:49:50.775Z,97486.11
2019-05-26T07:52:26.598Z,97487.67
2019-05-26T07:55:02.086Z,97483.80
2019-05-26T07:57:45.603Z,97481.27
2019-05-26T08:00:25.689Z,97488.27
2019-05-26T08:03:01.055Z,97484.08
2019-05-26T08:05:42.834Z,97488.50
2019-05-26T08:08:18.287Z,97494.27
2019-05-26T08:10:57.610Z,97493.86
2019-05-26T08:13:31.190Z,97494.41
2019-05-26T08:16:08.086Z,97497.47
2019-05-26T08:18:55.632Z,97496.83
2019-05-26T08:21:34.470Z,97504.59
2019-05-26T08:24:13.928Z,97503.13
2019-05-26T08:26:48.569Z,97506.74
2019-05-26T08:29:22.799Z,97508.03
2019-05-26T08:31:58.208Z,97517.78
2019-05-26T08:34:41.459Z,97526.61
2019-05-26T08:37:13.833Z,97522.86
2019-05-26T08:39:56.623Z,97518.09
2019-05-26T08:42:43.736Z,97515.53
2019-05-26T08:45:13.580Z,97513.38
2019-05-26T08:47:52.135Z,97516.25
2019-05-26T08:50:35.083Z,97520.14
2019-05-26T08:53:09.247Z,97522.20
2019-05-26T08:55:46.621Z,97518.11
2019-05-26T08:58:40.036Z,97522.72
2019-05-26T09:01:12.886Z,97517.06
2019-05-26T09:04:00.617Z,97516.78
2019-05-26T09:06:39.238Z,97519.37
2019-05-26T09:09:24.427Z,97522.49
2019-05-26T09:12:14.263Z,97528.00
2019-05-26T09:14:51.326Z,97524.80
2019-05-26T09:17:33.251Z,97531.66
2019-05-26T09:20:11.933Z,97527.50
2019-05-26T09:22:44.811Z,97527.12
2019-05-26T09:25:31.130Z,97520.76
2019-05-26T09:28:17.313Z,97523.69
2019-05-26T09:33:43.312Z,97530.23
2019-05-26T09:36:21.509Z,97530.59
2019-05-26T09:39:10.396Z,97545.05
2019-05-26T09:41:48.429Z,97549.86
2019-05-26T09:44:33.695Z,97543.27
2019-05-26T09:47:19.678Z,97544.23
2019-05-26T09:49:57.752Z,97546.09
2019-05-26T09:52:37.906Z,97543.45
2019-05-26T09:55:17.891Z,97541.20
2019-05-26T09:57:56.348Z,97545.27
2019-05-26T10:00:35.188Z,97545.77
2019-05-26T10:03:20.300Z,97559.16
2019-05-26T10:05:59.800Z,97553.88
2019-05-26T10:08:40.990Z,97556.38
2019-05-26T10:11:18.284Z,97550.50
2019-05-26T10:14:18.669Z,97563.64
2019-05-26T10:17:01.141Z,97561.91
2019-05-26T10:19:44.507Z,97558.44
2019-05-26T10:22:19.062Z,97559.29
2019-05-26T10:24:53.692Z,97563.47
2019-05-26T10:27:29.530Z,97565.25
2019-05-26T10:30:10.903Z,97565.27
2019-05-26T10:32:48.440Z,97570.31
2019-05-26T10:35:29.640Z,97572.95
2019-05-26T10:38:05.554Z,97586.17
2019-05-26T10:40:54.173Z,97578.25
2019-05-26T10:43:47.398Z,97571.19
2019-05-26T10:46:27.909Z,97575.19
2019-05-26T10:49:06.786Z,97579.89
2019-05-26T10:51:41.289Z,97579.23
2019-05-26T10:54:18.355Z,97582.09
2019-05-26T10:56:57.659Z,97565.84
2019-05-26T10:59:34.071Z,97568.57
2019-05-26T11:02:07.668Z,97559.12
2019-05-26T11:04:41.513Z,97549.88
2019-05-26T11:07:16.853Z,97551.69
2019-05-26T11:09:50.519Z,97556.54
2019-05-26T11:12:24.154Z,97553.24
2019-05-26T11:15:01.837Z,97543.74
2019-05-26T11:17:37.547Z,97541.27
2019-05-26T11:20:12.586Z,97546.06
2019-05-26T11:22:47.936Z,97556.81
2019-05-26T11:25:41.181Z,97549.55
2019-05-26T11:28:13.046Z,97559.56
2019-05-26T11:30:47.598Z,97558.39
2019-05-26T11:33:31.278Z,97553.35
2019-05-26T11:36:23.630Z,97558.44
2019-05-26T11:38:51.963Z,97560.89
2019-05-26T11:41:26.750Z,97554.13
2019-05-26T11:44:17.028Z,97547.17
2019-05-26T11:46:43.281Z,97548.95
2019-05-26T11:49:21.515Z,97545.39
2019-05-26T11:52:04.960Z,97541.50
2019-05-26T11:54:46.554Z,97538.09
2019-05-26T11:57:26.752Z,97541.45
2019-05-26T12:00:09.824Z,97532.17
2019-05-26T12:03:09.932Z,97533.09
2019-05-26T12:05:44.857Z,97534.23
2019-05-26T12:08:20.746Z,97542.13
2019-05-26T12:10:52.135Z,97545.09
2019-05-26T12:13:30.013Z,97535.70
2019-05-26T12:16:09.956Z,97544.86
2019-05-26T12:18:49.088Z,97540.78
2019-05-26T12:21:21.310Z,97539.66
2019-05-26T12:23:59.727Z,97545.69
2019-05-26T12:26:39.372Z,97536.28
2019-05-26T12:29:18.572Z,97541.87
2019-05-26T12:31:56.040Z,97537.75
2019-05-26T12:34:28.678Z,97536.67
2019-05-26T12:37:10.746Z,97538.72
2019-05-26T12:39:54.152Z,97535.50
2019-05-26T12:45:23.566Z,97532.17
2019-05-26T12:48:02.457Z,97524.95
2019-05-26T12:50:50.206Z,97532.51
2019-05-26T12:53:25.810Z,97538.44
2019-05-26T12:56:05.021Z,97528.86
2019-05-26T12:58:46.836Z,97527.63
2019-05-26T13:01:23.675Z,97531.51
2019-05-26T13:04:15.115Z,97535.99
2019-05-26T13:06:53.308Z,97540.80
2019-05-26T13:09:29.084Z,97538.03
2019-05-26T13:12:13.691Z,97541.38
2019-05-26T13:14:46.991Z,97533.80
2019-05-26T13:17:31.524Z,97530.56
2019-05-26T13:20:15.266Z,97531.57
2019-05-26T13:22:53.045Z,97532.58
2019-05-26T13:25:28.967Z,97533.67
2019-05-26T13:28:03.842Z,97533.56
2019-05-26T13:30:47.411Z,97529.50
2019-05-26T13:33:20.781Z,97527.95
2019-05-26T13:36:01.837Z,97519.21
2019-05-26T13:38:35.078Z,97520.75
2019-05-26T13:41:22.073Z,97524.70
2019-05-26T13:43:59.993Z,97526.09
2019-05-26T13:46:39.770Z,97525.08
2019-05-26T13:49:20.187Z,97519.34
2019-05-26T13:51:55.469Z,97515.52
2019-05-26T13:54:31.368Z,97513.94
2019-05-26T13:57:16.775Z,97516.94
2019-05-26T13:59:56.845Z,97523.25
2019-05-26T14:02:29.168Z,97529.28
2019-05-26T14:05:03.505Z,97529.02
2019-05-26T14:07:39.777Z,97525.11
2019-05-26T14:10:20.231Z,97525.53
2019-05-26T14:12:55.429Z,97524.37
2019-05-26T14:15:38.285Z,97524.84
2019-05-26T14:18:26.060Z,97519.42
2019-05-26T14:21:05.805Z,97521.70
2019-05-26T14:23:45.198Z,97515.08
2019-05-26T14:26:23.430Z,97519.84
2019-05-26T14:28:58.106Z,97516.83
2019-05-26T14:31:36.786Z,97511.83
2019-05-26T14:34:21.917Z,97523.28
2019-05-26T14:36:53.247Z,97513.73
2019-05-26T14:39:27.229Z,97515.95
2019-05-26T14:42:12.510Z,97518.31
2019-05-26T14:44:47.516Z,97519.41
2019-05-26T14:47:25.465Z,97508.78
2019-05-26T14:50:07.737Z,97506.13
2019-05-26T14:52:52.238Z,97499.95
2019-05-26T14:55:35.072Z,97501.30
2019-05-26T14:58:15.657Z,97501.71
2019-05-26T15:00:43.025Z,97505.56
2019-05-26T15:03:19.152Z,97504.94
2019-05-26T15:06:06.245Z,97510.75
2019-05-26T15:08:43.717Z,97508.07
2019-05-26T15:11:22.852Z,97503.72
2019-05-26T15:14:10.357Z,97509.11
2019-05-26T15:16:43.235Z,97505.92
2019-05-26T15:19:15.660Z,97509.08
2019-05-26T15:21:55.996Z,97513.53
2019-05-26T15:24:39.773Z,97510.00
2019-05-26T15:27:14.021Z,97512.89
2019-05-26T15:29:58.467Z,97514.48
2019-05-26T15:32:43.380Z,97517.20
2019-05-26T15:35:20.293Z,97518.59
2019-05-26T15:38:09.190Z,97514.08
2019-05-26T15:40:45.935Z,97521.98
2019-05-26T15:43:36.782Z,97519.20
2019-05-26T15:49:20.263Z,97514.30
2019-05-26T15:51:55.416Z,97513.19
2019-05-26T15:54:33.791Z,97514.59
2019-05-26T15:57:15.477Z,97510.97
2019-05-26T15:59:54.918Z,97504.52
2019-05-26T16:02:40.380Z,97502.83
2019-05-26T16:05:18.542Z,97505.30
2019-05-26T16:07:53.349Z,97504.45
2019-05-26T16:10:25.656Z,97496.56
2019-05-26T16:13:01.757Z,97501.33
2019-05-26T16:15:36.421Z,97495.47
2019-05-26T16:18:18.593Z,97499.28
2019-05-26T16:21:02.747Z,97503.94
2019-05-26T16:23:33.734Z,97499.72
2019-05-26T16:26:12.486Z,97494.83
2019-05-26T16:28:50.761Z,97496.46
2019-05-26T16:31:24.233Z,97495.67
2019-05-26T16:33:57.766Z,97492.73
2019-05-26T16:36:41.003Z,97501.59
2019-05-26T16:39:14.350Z,97495.20
2019-05-26T16:41:53.204Z,97487.47
2019-05-26T16:44:26.296Z,97489.39
2019-05-26T16:46:57.958Z,97487.25
2019-05-26T16:49:33.675Z,97488.84
2019-05-26T16:52:17.758Z,97483.90
2019-05-26T16:54:56.888Z,97475.71
2019-05-26T16:57:34.788Z,97477.33
2019-05-26T17:00:14.431Z,97474.69
2019-05-26T17:02:48.872Z,97480.58
2019-05-26T17:05:23.517Z,97481.55
2019-05-26T17:07:59.128Z,97481.56
2019-05-26T17:10:33.140Z,97484.37
2019-05-26T17:13:06.456Z,97481.62
2019-05-26T17:15:43.673Z,97486.16
2019-05-26T17:18:19.021Z,97487.47
2019-05-26T17:20:51.015Z,97477.63
2019-05-26T17:23:27.295Z,97484.17
2019-05-26T17:26:02.314Z,97477.58
2019-05-26T17:28:37.823Z,97479.17
2019-05-26T17:31:13.716Z,97477.55
2019-05-26T17:33:49.606Z,97484.45
2019-05-26T17:36:25.481Z,97488.06
2019-05-26T17:39:02.207Z,97497.56
2019-05-26T17:41:40.031Z,97498.20
2019-05-26T17:44:13.253Z,97501.66
2019-05-26T17:46:53.981Z,97504.10
2019-05-26T17:49:34.953Z,97506.91
2019-05-26T17:52:11.251Z,97498.52
2019-05-26T17:54:48.313Z,97502.71
2019-05-26T17:57:26.425Z,97512.81
2019-05-26T18:00:01.586Z,97514.47
2019-05-26T18:02:37.276Z,97522.43
2019-05-26T18:05:20.324Z,97523.92
2019-05-26T18:08:01.952Z,97522.91
2019-05-26T18:10:38.077Z,97527.81
2019-05-26T18:13:13.709Z,97527.19
2019-05-26T18:15:46.249Z,97525.03
2019-05-26T18:18:21.597Z,97527.16
2019-05-26T18:20:58.479Z,97525.81
2019-05-26T18:23:33.616Z,97528.27
2019-05-26T18:26:07.226Z,97528.11
2019-05-26T18:28:40.891Z,97534.64
2019-05-26T18:31:13.144Z,97534.98
2019-05-26T18:33:47.207Z,97531.32
2019-05-26T18:36:22.425Z,97532.31
2019-05-26T18:38:55.619Z,97538.83
2019-05-26T18:41:29.637Z,97538.19
2019-05-26T18:44:09.693Z,97548.09
2019-05-26T18:46:43.706Z,97546.13
2019-05-26T18:49:23.000Z,97547.14
2019-05-26T18:51:57.955Z,97554.50
2019-05-26T18:54:30.940Z,97553.64
2019-05-26T18:57:08.012Z,97554.58
2019-05-26T18:59:42.319Z,97561.31
2019-05-26T19:02:15.617Z,97564.61
2019-05-26T19:04:48.398Z,97561.91
2019-05-26T19:07:21.180Z,97560.46
2019-05-26T19:09:57.875Z,97571.59
2019-05-26T19:12:34.883Z,97565.64
2019-05-26T19:15:06.529Z,97567.41
2019-05-26T19:17:42.750Z,97570.78
2019-05-26T19:20:18.196Z,97575.91
2019-05-26T19:22:53.505Z,97577.25
2019-05-26T19:25:33.410Z,97581.98
2019-05-26T19:28:08.244Z,97588.81
2019-05-26T19:30:45.529Z,97579.20
2019-05-26T19:33:21.102Z,97579.33
2019-05-26T19:35:57.111Z,97577.54
2019-05-26T19:38:36.255Z,97593.38
2019-05-26T19:41:19.064Z,97588.75
2019-05-26T19:43:58.685Z,97591.47
2019-05-26T19:46:33.332Z,97589.97
2019-05-26T19:49:07.734Z,97594.69
2019-05-26T19:51:41.609Z,97596.12
2019-05-26T19:54:15.368Z,97589.34
2019-05-26T19:56:48.514Z,97599.63
2019-05-26T19:59:25.785Z,97596.66
2019-05-26T20:01:58.882Z,97595.31
2019-05-26T20:04:33.059Z,97596.02
2019-05-26T20:07:08.870Z,97588.55
2019-05-26T20:09:49.224Z,97588.71
2019-05-26T20:12:27.217Z,97589.97
2019-05-26T20:15:04.335Z,97589.33
2019-05-26T20:17:44.998Z,97591.14
2019-05-26T20:20:22.602Z,97592.97
2019-05-26T20:22:57.951Z,97601.53
2019-05-26T20:25:34.858Z,97603.52
2019-05-26T20:28:14.226Z,97591.72
2019-05-26T20:30:56.729Z,97591.09
2019-05-26T20:33:28.480Z,97600.80
2019-05-26T20:36:07.581Z,97606.19
2019-05-26T20:38:41.204Z,97606.19
2019-05-26T20:41:17.990Z,97604.94
2019-05-26T20:43:52.415Z,97606.25
2019-05-26T20:46:29.265Z,97611.17
2019-05-26T20:49:06.347Z,97616.06
2019-05-26T20:51:48.804Z,97617.72
2019-05-26T20:54:27.043Z,97621.02
2019-05-26T20:57:03.208Z,97615.74
2019-05-26T20:59:36.557Z,97611.78
2019-05-26T21:02:12.984Z,97607.28
2019-05-26T21:04:45.472Z,97609.48
2019-05-26T21:07:19.511Z,97609.16
2019-05-26T21:09:51.634Z,97607.27
2019-05-26T21:12:26.410Z,97609.89
2019-05-26T21:15:02.730Z,97606.36
2019-05-26T21:17:38.115Z,97603.01
2019-05-26T21:20:16.479Z,97603.41
2019-05-26T21:22:50.838Z,97609.70
2019-05-26T21:25:23.941Z,97602.09
2019-05-26T21:27:57.726Z,97609.98
2019-05-26T21:30:34.880Z,97614.67
2019-05-26T21:33:09.187Z,97610.83
2019-05-26T21:35:44.726Z,97609.52
2019-05-26T21:38:19.011Z,97609.95
2019-05-26T21:40:57.834Z,97607.77
2019-05-26T21:43:29.845Z,97605.20
2019-05-26T21:46:07.562Z,97602.89
2019-05-26T21:48:45.870Z,97601.78
2019-05-26T21:51:19.580Z,97605.59
2019-05-26T21:53:57.910Z,97594.73
2019-05-26T21:56:33.976Z,97595.20
2019-05-26T21:59:12.693Z,97590.05
2019-05-26T22:01:48.812Z,97587.78
2019-05-26T22:04:26.519Z,97588.14
2019-05-26T22:07:02.433Z,97586.67
2019-05-26T22:09:38.649Z,97588.58
2019-05-26T22:12:14.163Z,97589.80
2019-05-26T22:14:47.484Z,97587.15
2019-05-26T22:17:21.860Z,97583.55
2019-05-26T22:20:09.901Z,97583.06
2019-05-26T22:22:52.894Z,97580.97
2019-05-26T22:25:50.607Z,97582.34
2019-05-26T22:28:23.830Z,97580.48
2019-05-26T22:30:56.710Z,97584.73
2019-05-26T22:33:29.900Z,97575.92
2019-05-26T22:36:02.441Z,97581.12
2019-05-26T22:38:38.806Z,97587.51
2019-05-26T22:41:18.463Z,97581.47
2019-05-26T22:43:51.514Z,97578.70
2019-05-26T22:46:27.572Z,97581.59
2019-05-26T22:49:03.549Z,97572.80
2019-05-26T22:51:37.520Z,97580.64
2019-05-26T22:54:11.710Z,97582.27
2019-05-26T22:56:52.111Z,97580.30
2019-05-26T22:59:32.047Z,97576.68
2019-05-26T23:02:07.329Z,97574.89
2019-05-26T23:04:45.106Z,97573.00
2019-05-26T23:07:20.950Z,97576.88
2019-05-26T23:09:57.703Z,97572.48
2019-05-26T23:12:31.522Z,97568.69
2019-05-26T23:15:05.635Z,97570.78
2019-05-26T23:17:40.974Z,97560.91
2019-05-26T23:20:13.952Z,97566.58
2019-05-26T23:22:51.472Z,97560.83
2019-05-26T23:25:26.980Z,97561.73
2019-05-26T23:27:58.951Z,97556.74
2019-05-26T23:30:31.522Z,97556.66
2019-05-26T23:33:07.026Z,97555.50
2019-05-26T23:35:50.400Z,97559.74
2019-05-26T23:38:25.193Z,97559.38
2019-05-26T23:41:00.341Z,97555.93
2019-05-26T23:43:37.141Z,97559.63
2019-05-26T23:46:15.019Z,97557.69
2019-05-26T23:48:48.227Z,97547.90
2019-05-26T23:51:22.361Z,97548.46
2019-05-26T23:53:55.936Z,97546.67
2019-05-26T23:56:32.214Z,97545.17
2019-05-26T23:59:06.534Z,97535.50
